createdAt,value
2022-09-15T00:01:15.919Z,19.90
2022-09-15T00:05:18.948Z,19.83
2022-09-15T00:09:20.385Z,19.88
2022-09-15T00:13:22.610Z,19.90
2022-09-15T00:17:24.163Z,20.17
2022-09-15T00:21:28.546Z,19.61
2022-09-15T00:25:29.969Z,19.26
2022-09-15T00:29:31.435Z,19.64
2022-09-15T00:33:33.295Z,19.62
2022-09-15T00:37:34.711Z,19.46
2022-09-15T00:41:39.569Z,19.05
2022-09-15T00:45:41.178Z,18.85
2022-09-15T00:49:43.476Z,18.99
2022-09-15T00:53:47.473Z,18.87
2022-09-15T00:58:11.217Z,18.99
2022-09-15T01:02:23.113Z,18.67
2022-09-15T01:06:37.544Z,19.20
2022-09-15T01:10:41.053Z,19.00
2022-09-15T01:14:42.456Z,19.07
2022-09-15T01:18:46.434Z,19.22
2022-09-15T01:23:06.043Z,19.07
2022-09-15T01:27:41.695Z,18.92
2022-09-15T01:32:09.500Z,19.05
2022-09-15T01:36:25.157Z,19.44
2022-09-15T01:40:32.380Z,19.02
2022-09-15T01:44:52.264Z,19.22
2022-09-15T01:48:55.732Z,19.31
2022-09-15T01:53:02.550Z,18.92
2022-09-15T01:57:04.080Z,19.03
2022-09-15T02:01:08.634Z,19.30
2022-09-15T02:05:37.205Z,19.06
2022-09-15T02:09:56.350Z,19.29
2022-09-15T02:14:10.441Z,19.16
2022-09-15T02:18:14.795Z,18.93
2022-09-15T02:22:29.201Z,18.95
2022-09-15T02:26:33.361Z,18.86
2022-09-15T02:30:41.131Z,18.70
2022-09-15T02:34:47.317Z,19.01
2022-09-15T02:39:03.702Z,18.49
2022-09-15T02:43:10.701Z,18.67
2022-09-15T02:47:12.115Z,18.26
2022-09-15T02:51:14.232Z,18.36
2022-09-15T02:55:16.295Z,18.40
2022-09-15T02:59:17.700Z,18.49
2022-09-15T03:03:20.102Z,18.24
2022-09-15T03:07:21.611Z,18.31
2022-09-15T03:11:26.684Z,18.26
2022-09-15T03:15:28.150Z,18.34
2022-09-15T03:19:29.881Z,18.58
2022-09-15T03:23:32.108Z,18.49
2022-09-15T03:27:36.774Z,18.55
2022-09-15T03:31:38.442Z,18.58
2022-09-15T03:35:39.941Z,18.82
2022-09-15T03:39:41.846Z,19.00
2022-09-15T03:43:43.243Z,19.18
2022-09-15T03:47:44.685Z,19.08
2022-09-15T03:51:46.110Z,18.67
2022-09-15T03:55:48.807Z,18.44
2022-09-15T03:59:50.233Z,18.70
2022-09-15T04:03:51.842Z,18.30
2022-09-15T04:07:53.245Z,18.77
2022-09-15T04:11:54.647Z,18.60
2022-09-15T04:16:04.423Z,18.56
2022-09-15T04:20:06.394Z,18.46
2022-09-15T04:24:07.930Z,18.72
2022-09-15T04:28:09.378Z,18.53
2022-09-15T04:32:10.934Z,18.72
2022-09-15T04:36:15.154Z,18.41
2022-09-15T04:40:16.735Z,18.46
2022-09-15T04:44:18.225Z,18.74
2022-09-15T04:48:20.299Z,18.40
2022-09-15T04:52:21.774Z,18.46
2022-09-15T04:56:25.934Z,18.51
2022-09-15T05:00:27.461Z,18.43
2022-09-15T05:04:28.948Z,18.50
2022-09-15T05:08:30.341Z,18.36
2022-09-15T05:12:31.775Z,18.27
2022-09-15T05:16:33.335Z,18.11
2022-09-15T05:20:34.872Z,18.42
2022-09-15T05:24:36.262Z,18.56
2022-09-15T05:28:38.542Z,18.61
2022-09-15T05:32:39.927Z,18.48
2022-09-15T05:36:41.394Z,18.60
2022-09-15T05:40:42.821Z,18.11
2022-09-15T05:44:44.213Z,18.43
2022-09-15T05:48:46.561Z,18.36
2022-09-15T05:52:51.344Z,18.36
2022-09-15T05:56:52.820Z,18.27
2022-09-15T06:00:55.559Z,18.99
2022-09-15T06:04:57.002Z,19.08
2022-09-15T06:08:59.596Z,18.51
2022-09-15T06:13:01.186Z,19.04
2022-09-15T06:17:02.594Z,18.77
2022-09-15T06:21:16.086Z,19.35
2022-09-15T06:25:17.603Z,19.27
2022-09-15T06:29:19.195Z,19.71
2022-09-15T06:33:20.626Z,19.83
2022-09-15T06:37:22.026Z,19.43
2022-09-15T06:41:23.668Z,18.99
2022-09-15T06:45:25.103Z,18.90
2022-09-15T06:49:26.675Z,19.09
2022-09-15T06:53:30.060Z,19.07
2022-09-15T06:57:31.521Z,19.69
2022-09-15T07:01:33.329Z,19.27
2022-09-15T07:05:35.430Z,19.32
2022-09-15T07:09:40.949Z,19.00
2022-09-15T07:13:42.929Z,19.26
2022-09-15T07:17:44.433Z,19.57
2022-09-15T07:21:45.911Z,19.54
2022-09-15T07:25:47.388Z,19.63
2022-09-15T07:29:48.812Z,19.99
2022-09-15T07:33:50.715Z,19.73
2022-09-15T07:37:52.480Z,19.62
2022-09-15T07:41:53.889Z,19.98
2022-09-15T07:45:59.117Z,20.22
2022-09-15T07:50:00.702Z,19.81
2022-09-15T07:54:02.468Z,19.60
2022-09-15T07:58:03.865Z,20.03
2022-09-15T08:02:05.343Z,19.90
2022-09-15T08:06:07.122Z,19.82
2022-09-15T08:10:09.816Z,19.96
2022-09-15T08:14:11.264Z,19.88
2022-09-15T08:18:12.893Z,19.88
2022-09-15T08:22:14.395Z,20.35
2022-09-15T08:26:15.916Z,20.00
2022-09-15T08:30:17.946Z,19.95
2022-09-15T08:34:19.464Z,20.51
2022-09-15T08:38:20.941Z,20.90
2022-09-15T08:42:24.088Z,20.99
2022-09-15T08:46:36.996Z,20.72
2022-09-15T08:50:47.428Z,21.55
2022-09-15T08:54:53.511Z,20.78
2022-09-15T08:58:55.195Z,20.75
2022-09-15T09:03:16.352Z,20.85
2022-09-15T09:07:23.283Z,20.23
2022-09-15T09:11:51.231Z,20.62
2022-09-15T09:16:29.598Z,20.08
2022-09-15T09:20:48.730Z,20.66
2022-09-15T09:24:53.239Z,21.20
2022-09-15T09:28:59.558Z,21.54
2022-09-15T09:33:26.701Z,20.50
2022-09-15T09:37:28.700Z,21.15
2022-09-15T09:41:36.333Z,21.25
2022-09-15T09:45:37.839Z,21.80
2022-09-15T09:49:49.704Z,21.22
2022-09-15T09:53:53.827Z,21.53
2022-09-15T09:58:12.063Z,21.37
2022-09-15T10:02:16.458Z,21.40
2022-09-15T10:06:22.238Z,21.55
2022-09-15T10:10:28.654Z,21.30
2022-09-15T10:14:45.353Z,21.56
2022-09-15T10:18:49.000Z,21.36
2022-09-15T10:23:21.860Z,22.15
2022-09-15T10:27:35.245Z,21.67
2022-09-15T10:31:36.701Z,22.02
2022-09-15T10:35:42.196Z,22.19
2022-09-15T10:40:10.813Z,22.08
2022-09-15T10:44:50.188Z,22.30
2022-09-15T10:49:00.656Z,21.87
2022-09-15T10:53:13.189Z,21.20
2022-09-15T10:57:51.438Z,21.79
2022-09-15T11:02:00.428Z,21.75
2022-09-15T11:06:16.688Z,21.23
2022-09-15T11:10:51.218Z,22.06
2022-09-15T11:15:00.003Z,22.26
2022-09-15T11:19:13.472Z,21.86
2022-09-15T11:23:29.551Z,21.87
2022-09-15T11:27:37.227Z,22.43
2022-09-15T11:31:42.374Z,22.20
2022-09-15T11:36:09.441Z,22.29
2022-09-15T11:40:28.705Z,23.13
2022-09-15T11:44:32.464Z,22.65
2022-09-15T11:48:42.322Z,21.68
2022-09-15T11:53:00.756Z,22.28
2022-09-15T11:57:02.292Z,22.64
2022-09-15T12:01:19.013Z,22.73
2022-09-15T12:05:42.607Z,22.81
2022-09-15T12:09:44.610Z,22.96
2022-09-15T12:13:46.768Z,22.78
2022-09-15T12:17:57.294Z,22.44
2022-09-15T12:22:20.765Z,23.07
2022-09-15T12:26:24.925Z,22.94
2022-09-15T12:30:41.442Z,21.87
2022-09-15T12:35:13.849Z,21.74
2022-09-15T12:39:42.977Z,22.91
2022-09-15T12:43:54.028Z,22.35
2022-09-15T12:48:03.168Z,22.42
2022-09-15T12:52:07.724Z,22.60
2022-09-15T12:56:21.662Z,22.16
2022-09-15T13:00:29.063Z,22.70
2022-09-15T13:04:43.508Z,22.10
2022-09-15T13:08:47.856Z,22.08
2022-09-15T13:12:54.395Z,22.21
2022-09-15T13:17:06.532Z,21.33
2022-09-15T13:21:13.976Z,21.45
2022-09-15T13:25:19.187Z,21.36
2022-09-15T13:29:22.935Z,21.40
2022-09-15T13:38:32.096Z,21.40
2022-09-15T13:42:57.567Z,21.09
2022-09-15T13:47:17.819Z,21.06
2022-09-15T13:51:31.210Z,21.11
2022-09-15T13:55:39.233Z,21.09
2022-09-15T13:59:41.385Z,21.34
2022-09-15T14:03:58.312Z,20.92
2022-09-15T14:08:04.157Z,20.97
2022-09-15T14:12:10.461Z,21.15
2022-09-15T14:16:25.512Z,21.52
2022-09-15T14:20:33.446Z,21.74
2022-09-15T14:24:40.129Z,21.70
2022-09-15T14:28:47.549Z,21.49
2022-09-15T14:32:52.567Z,21.81
2022-09-15T14:37:01.832Z,22.04
2022-09-15T14:41:03.580Z,21.77
2022-09-15T14:49:37.489Z,21.46
2022-09-15T14:53:41.854Z,21.31
2022-09-15T14:57:50.163Z,20.68
2022-09-15T15:02:05.763Z,20.10
2022-09-15T15:06:34.846Z,19.92
2022-09-15T15:10:37.092Z,20.02
2022-09-15T15:14:38.826Z,19.99
2022-09-15T15:18:41.830Z,20.19
2022-09-15T15:22:44.785Z,20.02
2022-09-15T15:26:49.635Z,20.10
2022-09-15T15:30:51.144Z,20.10
2022-09-15T15:34:55.732Z,20.02
2022-09-15T15:39:00.141Z,20.17
2022-09-15T15:43:07.800Z,20.21
2022-09-15T15:47:12.295Z,20.47
2022-09-15T15:51:13.790Z,20.67
2022-09-15T15:55:23.496Z,19.76
2022-09-15T15:59:24.949Z,20.40
2022-09-15T16:03:27.496Z,20.23
2022-09-15T16:07:33.466Z,20.02
2022-09-15T16:11:35.119Z,19.80
2022-09-15T16:15:36.566Z,19.79
2022-09-15T16:19:38.015Z,19.84
2022-09-15T16:23:39.573Z,19.69
2022-09-15T16:27:41.329Z,19.84
2022-09-15T16:31:42.898Z,19.74
2022-09-15T16:36:03.649Z,19.82
2022-09-15T16:40:05.889Z,19.71
2022-09-15T16:44:17.526Z,19.53
2022-09-15T16:48:19.374Z,19.80
2022-09-15T16:52:20.778Z,19.69
2022-09-15T16:56:22.229Z,19.93
2022-09-15T17:00:23.696Z,19.57
2022-09-15T17:04:25.126Z,19.47
2022-09-15T17:08:29.562Z,19.53
2022-09-15T17:12:31.063Z,19.14
2022-09-15T17:16:32.617Z,19.30
2022-09-15T17:20:39.175Z,19.08
2022-09-15T17:24:40.919Z,18.91
2022-09-15T17:28:42.775Z,19.25
2022-09-15T17:32:44.313Z,19.40
2022-09-15T17:36:45.786Z,18.71
2022-09-15T17:40:51.746Z,19.24
2022-09-15T17:44:53.133Z,18.94
2022-09-15T17:48:54.621Z,19.41
2022-09-15T17:52:56.983Z,19.56
2022-09-15T17:56:58.412Z,19.09
2022-09-15T18:01:00.281Z,18.94
2022-09-15T18:05:01.738Z,18.91
2022-09-15T18:09:03.194Z,18.84
2022-09-15T18:13:05.708Z,18.68
2022-09-15T18:17:09.365Z,18.87
2022-09-15T18:21:28.606Z,18.79
2022-09-15T18:25:32.652Z,19.03
2022-09-15T18:29:34.219Z,18.55
2022-09-15T18:33:35.752Z,18.55
2022-09-15T18:37:38.237Z,18.39
2022-09-15T18:41:39.975Z,18.62
2022-09-15T18:45:45.293Z,18.81
2022-09-15T18:49:46.836Z,18.91
2022-09-15T18:53:52.094Z,18.79
2022-09-15T18:58:00.094Z,18.56
2022-09-15T19:02:02.630Z,18.67
2022-09-15T19:06:07.350Z,18.67
2022-09-15T19:10:10.867Z,18.33
2022-09-15T19:14:12.302Z,18.39
2022-09-15T19:18:13.835Z,18.57
2022-09-15T19:22:15.617Z,18.46
2022-09-15T19:26:17.194Z,18.34
2022-09-15T19:30:18.652Z,18.35
2022-09-15T19:34:20.672Z,18.63
2022-09-15T19:38:22.159Z,18.25
2022-09-15T19:42:23.629Z,18.29
2022-09-15T19:46:25.566Z,18.57
2022-09-15T19:50:27.204Z,18.38
2022-09-15T19:54:30.442Z,18.21
2022-09-15T19:58:32.744Z,17.97
2022-09-15T20:02:34.386Z,18.19
2022-09-15T20:06:36.111Z,17.93
2022-09-15T20:10:39.529Z,18.01
2022-09-15T20:14:41.027Z,17.52
2022-09-15T20:18:42.936Z,17.71
2022-09-15T20:22:44.447Z,17.85
2022-09-15T20:26:45.871Z,17.53
2022-09-15T20:30:47.458Z,17.56
2022-09-15T20:34:50.195Z,17.73
2022-09-15T20:38:53.273Z,17.83
2022-09-15T20:42:54.772Z,17.69
2022-09-15T20:46:56.231Z,17.82
2022-09-15T20:51:13.362Z,17.90
2022-09-15T20:55:14.876Z,17.83
2022-09-15T20:59:16.299Z,17.92
2022-09-15T21:03:18.992Z,17.93
2022-09-15T21:07:20.436Z,17.88
2022-09-15T21:11:23.183Z,17.91
2022-09-15T21:15:24.584Z,17.97
2022-09-15T21:19:25.967Z,17.85
2022-09-15T21:23:32.761Z,17.64
2022-09-15T21:27:34.737Z,17.70
2022-09-15T21:31:36.239Z,17.85
2022-09-15T21:35:37.838Z,17.60
2022-09-15T21:39:39.328Z,17.41
2022-09-15T21:43:44.418Z,17.54
2022-09-15T21:47:45.829Z,17.63
2022-09-15T21:51:47.516Z,17.61
2022-09-15T21:55:50.380Z,17.65
2022-09-15T21:59:51.916Z,17.55
2022-09-15T22:03:55.937Z,17.61
2022-09-15T22:08:00.488Z,17.46
2022-09-15T22:12:05.824Z,17.53
2022-09-15T22:16:11.456Z,17.44
2022-09-15T22:20:12.940Z,17.67
2022-09-15T22:24:14.446Z,17.40
2022-09-15T22:28:16.043Z,17.68
2022-09-15T22:32:17.595Z,17.53
2022-09-15T22:36:26.450Z,17.48
2022-09-15T22:40:30.975Z,17.70
2022-09-15T22:44:32.737Z,17.46
2022-09-15T22:48:35.396Z,17.66
2022-09-15T22:52:38.967Z,17.82
2022-09-15T22:56:40.380Z,17.47
2022-09-15T23:00:41.936Z,17.58
2022-09-15T23:04:43.409Z,17.25
2022-09-15T23:08:49.694Z,17.16
2022-09-15T23:12:51.119Z,16.92
2022-09-15T23:16:52.544Z,16.93
2022-09-15T23:21:07.810Z,17.19
2022-09-15T23:25:09.353Z,17.14
2022-09-15T23:29:10.944Z,16.63
2022-09-15T23:33:12.376Z,16.79
2022-09-15T23:37:13.778Z,16.77
2022-09-15T23:41:16.441Z,16.72
2022-09-15T23:45:17.943Z,16.46
2022-09-15T23:49:19.435Z,16.81
2022-09-15T23:53:20.891Z,16.76
2022-09-15T23:57:22.308Z,16.72
